sensor_id;sensor_type;location;lat;lon;timestamp;P1;durP1;ratioP1;P2;durP2;ratioP2
73571;SDS011;61854;48.510;-2.770;2023-08-01T00:01:30;0.32;;;0.32;;
73571;SDS011;61854;48.510;-2.770;2023-08-01T00:03:55;0.25;;;0.25;;
73571;SDS011;61854;48.510;-2.770;2023-08-01T00:06:21;1.75;;;0.35;;
73571;SDS011;61854;48.510;-2.770;2023-08-01T00:08:47;0.10;;;0.10;;
73571;SDS011;61854;48.510;-2.770;2023-08-01T00:11:13;0.40;;;0.40;;
73571;SDS011;61854;48.510;-2.770;2023-08-01T00:13:41;0.70;;;0.22;;
73571;SDS011;61854;48.510;-2.770;2023-08-01T00:16:08;0.10;;;0.10;;
73571;SDS011;61854;48.510;-2.770;2023-08-01T00:18:34;0.10;;;0.10;;
73571;SDS011;61854;48.510;-2.770;2023-08-01T00:20:59;0.20;;;0.20;;
73571;SDS011;61854;48.510;-2.770;2023-08-01T00:23:25;0.57;;;0.40;;
73571;SDS011;61854;48.510;-2.770;2023-08-01T00:25:51;0.10;;;0.10;;
73571;SDS011;61854;48.510;-2.770;2023-08-01T00:28:21;0.15;;;0.15;;
73571;SDS011;61854;48.510;-2.770;2023-08-01T00:30:47;0.10;;;0.10;;
73571;SDS011;61854;48.510;-2.770;2023-08-01T00:33:13;0.17;;;0.17;;
73571;SDS011;61854;48.510;-2.770;2023-08-01T00:35:39;0.30;;;0.20;;
73571;SDS011;61854;48.510;-2.770;2023-08-01T00:38:05;0.00;;;0.00;;
73571;SDS011;61854;48.510;-2.770;2023-08-01T00:40:31;0.25;;;0.20;;
73571;SDS011;61854;48.510;-2.770;2023-08-01T00:42:57;0.10;;;0.10;;
73571;SDS011;61854;48.510;-2.770;2023-08-01T00:45:24;0.30;;;0.30;;
73571;SDS011;61854;48.510;-2.770;2023-08-01T00:47:55;0.25;;;0.25;;
73571;SDS011;61854;48.510;-2.770;2023-08-01T00:50:21;0.25;;;0.25;;
73571;SDS011;61854;48.510;-2.770;2023-08-01T00:52:49;0.13;;;0.13;;
73571;SDS011;61854;48.510;-2.770;2023-08-01T00:55:17;0.30;;;0.30;;
73571;SDS011;61854;48.510;-2.770;2023-08-01T00:57:43;0.40;;;0.40;;
73571;SDS011;61854;48.510;-2.770;2023-08-01T01:00:09;0.43;;;0.30;;
73571;SDS011;61854;48.510;-2.770;2023-08-01T01:02:35;0.17;;;0.15;;
73571;SDS011;61854;48.510;-2.770;2023-08-01T01:05:02;0.10;;;0.10;;
73571;SDS011;61854;48.510;-2.770;2023-08-01T01:07:28;0.20;;;0.20;;
73571;SDS011;61854;48.510;-2.770;2023-08-01T01:09:54;5.00;;;1.13;;
73571;SDS011;61854;48.510;-2.770;2023-08-01T01:12:20;4.00;;;0.45;;
73571;SDS011;61854;48.510;-2.770;2023-08-01T01:14:46;0.30;;;0.30;;
73571;SDS011;61854;48.510;-2.770;2023-08-01T01:17:11;0.22;;;0.17;;
73571;SDS011;61854;48.510;-2.770;2023-08-01T01:19:37;0.20;;;0.20;;
73571;SDS011;61854;48.510;-2.770;2023-08-01T01:22:06;0.47;;;0.47;;
73571;SDS011;61854;48.510;-2.770;2023-08-01T01:24:34;3.20;;;1.23;;
73571;SDS011;61854;48.510;-2.770;2023-08-01T01:27:00;0.38;;;0.38;;
73571;SDS011;61854;48.510;-2.770;2023-08-01T01:29:29;0.80;;;0.73;;
73571;SDS011;61854;48.510;-2.770;2023-08-01T01:31:55;0.10;;;0.10;;
73571;SDS011;61854;48.510;-2.770;2023-08-01T01:34:22;0.00;;;0.00;;
73571;SDS011;61854;48.510;-2.770;2023-08-01T01:36:48;0.68;;;0.63;;
73571;SDS011;61854;48.510;-2.770;2023-08-01T01:39:14;0.00;;;0.00;;
73571;SDS011;61854;48.510;-2.770;2023-08-01T01:41:39;0.40;;;0.40;;
73571;SDS011;61854;48.510;-2.770;2023-08-01T01:44:05;0.38;;;0.20;;
73571;SDS011;61854;48.510;-2.770;2023-08-01T01:46:31;0.10;;;0.10;;
73571;SDS011;61854;48.510;-2.770;2023-08-01T01:48:56;1.73;;;0.22;;
73571;SDS011;61854;48.510;-2.770;2023-08-01T01:53:51;0.10;;;0.10;;
73571;SDS011;61854;48.510;-2.770;2023-08-01T01:56:17;1.08;;;0.52;;
73571;SDS011;61854;48.510;-2.770;2023-08-01T01:58:43;6.70;;;0.30;;
73571;SDS011;61854;48.510;-2.770;2023-08-01T02:01:08;0.77;;;0.68;;
73571;SDS011;61854;48.510;-2.770;2023-08-01T02:03:34;0.30;;;0.30;;
73571;SDS011;61854;48.510;-2.770;2023-08-01T02:06:01;7.65;;;0.40;;
73571;SDS011;61854;48.510;-2.770;2023-08-01T02:08:28;0.30;;;0.30;;
73571;SDS011;61854;48.510;-2.770;2023-08-01T02:10:54;6.63;;;1.15;;
73571;SDS011;61854;48.510;-2.770;2023-08-01T02:13:23;0.10;;;0.10;;
73571;SDS011;61854;48.510;-2.770;2023-08-01T02:15:51;0.10;;;0.10;;
73571;SDS011;61854;48.510;-2.770;2023-08-01T02:18:17;2.60;;;0.90;;
73571;SDS011;61854;48.510;-2.770;2023-08-01T02:20:43;0.47;;;0.38;;
73571;SDS011;61854;48.510;-2.770;2023-08-01T02:23:08;0.13;;;0.13;;
73571;SDS011;61854;48.510;-2.770;2023-08-01T02:25:40;0.30;;;0.20;;
73571;SDS011;61854;48.510;-2.770;2023-08-01T02:28:06;3.92;;;0.52;;
73571;SDS011;61854;48.510;-2.770;2023-08-01T02:30:33;0.10;;;0.10;;
73571;SDS011;61854;48.510;-2.770;2023-08-01T02:32:59;0.30;;;0.30;;
73571;SDS011;61854;48.510;-2.770;2023-08-01T02:35:25;8.55;;;0.47;;
73571;SDS011;61854;48.510;-2.770;2023-08-01T02:37:51;0.80;;;0.50;;
73571;SDS011;61854;48.510;-2.770;2023-08-01T02:40:17;0.22;;;0.22;;
73571;SDS011;61854;48.510;-2.770;2023-08-01T02:42:42;1.92;;;0.93;;
73571;SDS011;61854;48.510;-2.770;2023-08-01T02:45:08;0.55;;;0.45;;
73571;SDS011;61854;48.510;-2.770;2023-08-01T02:47:34;0.35;;;0.35;;
73571;SDS011;61854;48.510;-2.770;2023-08-01T02:49:59;0.25;;;0.25;;
73571;SDS011;61854;48.510;-2.770;2023-08-01T02:52:25;0.10;;;0.10;;
73571;SDS011;61854;48.510;-2.770;2023-08-01T02:54:50;1.30;;;0.47;;
73571;SDS011;61854;48.510;-2.770;2023-08-01T02:57:16;0.35;;;0.20;;
73571;SDS011;61854;48.510;-2.770;2023-08-01T02:59:42;1.17;;;0.35;;
73571;SDS011;61854;48.510;-2.770;2023-08-01T03:02:07;0.20;;;0.20;;
73571;SDS011;61854;48.510;-2.770;2023-08-01T03:04:33;2.88;;;0.68;;
73571;SDS011;61854;48.510;-2.770;2023-08-01T03:06:58;3.97;;;0.73;;
73571;SDS011;61854;48.510;-2.770;2023-08-01T03:09:24;0.10;;;0.10;;
73571;SDS011;61854;48.510;-2.770;2023-08-01T03:11:50;0.20;;;0.20;;
73571;SDS011;61854;48.510;-2.770;2023-08-01T03:14:15;1.83;;;0.88;;
73571;SDS011;61854;48.510;-2.770;2023-08-01T03:16:41;1.65;;;0.43;;
73571;SDS011;61854;48.510;-2.770;2023-08-01T03:19:07;0.28;;;0.28;;
73571;SDS011;61854;48.510;-2.770;2023-08-01T03:21:33;0.20;;;0.20;;
73571;SDS011;61854;48.510;-2.770;2023-08-01T03:24:00;0.40;;;0.30;;
73571;SDS011;61854;48.510;-2.770;2023-08-01T03:26:26;0.82;;;0.45;;
73571;SDS011;61854;48.510;-2.770;2023-08-01T03:28:55;3.72;;;0.47;;
73571;SDS011;61854;48.510;-2.770;2023-08-01T03:31:21;0.20;;;0.20;;
73571;SDS011;61854;48.510;-2.770;2023-08-01T03:33:47;2.40;;;0.50;;
73571;SDS011;61854;48.510;-2.770;2023-08-01T03:36:13;1.15;;;0.38;;
73571;SDS011;61854;48.510;-2.770;2023-08-01T03:38:39;0.20;;;0.20;;
73571;SDS011;61854;48.510;-2.770;2023-08-01T03:41:05;0.10;;;0.10;;
73571;SDS011;61854;48.510;-2.770;2023-08-01T03:43:30;2.20;;;1.10;;
73571;SDS011;61854;48.510;-2.770;2023-08-01T03:45:56;0.20;;;0.20;;
73571;SDS011;61854;48.510;-2.770;2023-08-01T03:48:22;0.30;;;0.30;;
73571;SDS011;61854;48.510;-2.770;2023-08-01T03:50:47;0.55;;;0.40;;
73571;SDS011;61854;48.510;-2.770;2023-08-01T03:53:13;0.10;;;0.10;;
73571;SDS011;61854;48.510;-2.770;2023-08-01T03:55:39;1.52;;;1.45;;
73571;SDS011;61854;48.510;-2.770;2023-08-01T03:58:04;0.30;;;0.22;;
73571;SDS011;61854;48.510;-2.770;2023-08-01T04:00:30;0.30;;;0.30;;
73571;SDS011;61854;48.510;-2.770;2023-08-01T04:03:00;0.17;;;0.17;;
73571;SDS011;61854;48.510;-2.770;2023-08-01T04:05:26;6.22;;;1.45;;
73571;SDS011;61854;48.510;-2.770;2023-08-01T04:07:53;0.10;;;0.10;;
73571;SDS011;61854;48.510;-2.770;2023-08-01T04:10:20;0.22;;;0.22;;
73571;SDS011;61854;48.510;-2.770;2023-08-01T04:12:46;3.53;;;1.02;;
73571;SDS011;61854;48.510;-2.770;2023-08-01T04:15:12;0.20;;;0.20;;
73571;SDS011;61854;48.510;-2.770;2023-08-01T04:17:37;6.03;;;0.45;;
73571;SDS011;61854;48.510;-2.770;2023-08-01T04:20:03;1.90;;;0.80;;
73571;SDS011;61854;48.510;-2.770;2023-08-01T04:22:29;0.10;;;0.10;;
73571;SDS011;61854;48.510;-2.770;2023-08-01T04:24:55;1.48;;;0.95;;
73571;SDS011;61854;48.510;-2.770;2023-08-01T04:27:20;0.40;;;0.38;;
73571;SDS011;61854;48.510;-2.770;2023-08-01T04:29:47;0.22;;;0.22;;
73571;SDS011;61854;48.510;-2.770;2023-08-01T04:32:13;0.20;;;0.20;;
73571;SDS011;61854;48.510;-2.770;2023-08-01T04:34:40;0.82;;;0.28;;
73571;SDS011;61854;48.510;-2.770;2023-08-01T04:37:06;0.43;;;0.20;;
73571;SDS011;61854;48.510;-2.770;2023-08-01T04:39:32;0.10;;;0.10;;
73571;SDS011;61854;48.510;-2.770;2023-08-01T04:41:57;1.13;;;0.80;;
73571;SDS011;61854;48.510;-2.770;2023-08-01T04:44:23;0.55;;;0.40;;
73571;SDS011;61854;48.510;-2.770;2023-08-01T04:46:48;0.30;;;0.30;;
73571;SDS011;61854;48.510;-2.770;2023-08-01T04:49:14;0.08;;;0.08;;
73571;SDS011;61854;48.510;-2.770;2023-08-01T04:51:40;0.30;;;0.30;;
73571;SDS011;61854;48.510;-2.770;2023-08-01T04:54:06;1.48;;;0.55;;
73571;SDS011;61854;48.510;-2.770;2023-08-01T04:56:31;0.40;;;0.40;;
73571;SDS011;61854;48.510;-2.770;2023-08-01T04:58:57;7.97;;;5.85;;
73571;SDS011;61854;48.510;-2.770;2023-08-01T05:01:24;0.20;;;0.20;;
73571;SDS011;61854;48.510;-2.770;2023-08-01T05:03:49;0.30;;;0.22;;
73571;SDS011;61854;48.510;-2.770;2023-08-01T05:06:16;0.38;;;0.20;;
73571;SDS011;61854;48.510;-2.770;2023-08-01T05:08:42;1.85;;;0.60;;
73571;SDS011;61854;48.510;-2.770;2023-08-01T05:11:07;0.20;;;0.20;;
73571;SDS011;61854;48.510;-2.770;2023-08-01T05:13:33;2.60;;;2.40;;
73571;SDS011;61854;48.510;-2.770;2023-08-01T05:15:59;1.35;;;0.73;;
73571;SDS011;61854;48.510;-2.770;2023-08-01T05:18:24;0.52;;;0.47;;
73571;SDS011;61854;48.510;-2.770;2023-08-01T05:20:50;0.52;;;0.43;;
73571;SDS011;61854;48.510;-2.770;2023-08-01T05:23:15;1.33;;;0.57;;
73571;SDS011;61854;48.510;-2.770;2023-08-01T05:25:41;0.73;;;0.57;;
73571;SDS011;61854;48.510;-2.770;2023-08-01T05:28:07;0.10;;;0.10;;
73571;SDS011;61854;48.510;-2.770;2023-08-01T05:30:32;1.25;;;0.70;;
73571;SDS011;61854;48.510;-2.770;2023-08-01T05:32:58;0.30;;;0.30;;
73571;SDS011;61854;48.510;-2.770;2023-08-01T05:35:23;0.10;;;0.10;;
73571;SDS011;61854;48.510;-2.770;2023-08-01T05:37:49;0.40;;;0.40;;
73571;SDS011;61854;48.510;-2.770;2023-08-01T05:40:15;0.10;;;0.10;;
73571;SDS011;61854;48.510;-2.770;2023-08-01T05:42:40;0.77;;;0.77;;
73571;SDS011;61854;48.510;-2.770;2023-08-01T05:45:06;0.20;;;0.20;;
73571;SDS011;61854;48.510;-2.770;2023-08-01T05:47:32;1.27;;;0.20;;
73571;SDS011;61854;48.510;-2.770;2023-08-01T05:49:58;1.35;;;0.82;;
73571;SDS011;61854;48.510;-2.770;2023-08-01T05:52:23;1.75;;;0.43;;
73571;SDS011;61854;48.510;-2.770;2023-08-01T05:54:49;0.28;;;0.25;;
73571;SDS011;61854;48.510;-2.770;2023-08-01T05:57:14;0.10;;;0.10;;
73571;SDS011;61854;48.510;-2.770;2023-08-01T05:59:40;17.67;;;0.55;;
73571;SDS011;61854;48.510;-2.770;2023-08-01T06:02:06;3.83;;;2.15;;
73571;SDS011;61854;48.510;-2.770;2023-08-01T06:04:32;0.20;;;0.20;;
73571;SDS011;61854;48.510;-2.770;2023-08-01T06:06:57;0.20;;;0.20;;
73571;SDS011;61854;48.510;-2.770;2023-08-01T06:09:24;0.20;;;0.20;;
73571;SDS011;61854;48.510;-2.770;2023-08-01T06:11:50;0.15;;;0.15;;
73571;SDS011;61854;48.510;-2.770;2023-08-01T06:14:16;0.85;;;0.30;;
73571;SDS011;61854;48.510;-2.770;2023-08-01T06:16:42;0.20;;;0.20;;
73571;SDS011;61854;48.510;-2.770;2023-08-01T06:19:08;0.35;;;0.35;;
73571;SDS011;61854;48.510;-2.770;2023-08-01T06:21:34;5.35;;;0.50;;
73571;SDS011;61854;48.510;-2.770;2023-08-01T06:23:59;0.20;;;0.20;;
73571;SDS011;61854;48.510;-2.770;2023-08-01T06:26:25;0.00;;;0.00;;
73571;SDS011;61854;48.510;-2.770;2023-08-01T06:28:51;0.73;;;0.40;;
73571;SDS011;61854;48.510;-2.770;2023-08-01T06:31:18;0.17;;;0.17;;
73571;SDS011;61854;48.510;-2.770;2023-08-01T06:33:46;0.10;;;0.10;;
73571;SDS011;61854;48.510;-2.770;2023-08-01T06:36:12;0.68;;;0.68;;
73571;SDS011;61854;48.510;-2.770;2023-08-01T06:38:38;1.63;;;1.40;;
73571;SDS011;61854;48.510;-2.770;2023-08-01T06:41:04;0.40;;;0.40;;
73571;SDS011;61854;48.510;-2.770;2023-08-01T06:43:30;0.20;;;0.20;;
73571;SDS011;61854;48.510;-2.770;2023-08-01T06:45:55;0.20;;;0.20;;
73571;SDS011;61854;48.510;-2.770;2023-08-01T06:48:21;0.98;;;0.45;;
73571;SDS011;61854;48.510;-2.770;2023-08-01T06:50:47;0.20;;;0.20;;
73571;SDS011;61854;48.510;-2.770;2023-08-01T06:53:12;0.40;;;0.40;;
73571;SDS011;61854;48.510;-2.770;2023-08-01T06:55:38;0.30;;;0.30;;
73571;SDS011;61854;48.510;-2.770;2023-08-01T06:58:05;0.30;;;0.20;;
73571;SDS011;61854;48.510;-2.770;2023-08-01T07:00:31;0.10;;;0.10;;
73571;SDS011;61854;48.510;-2.770;2023-08-01T07:02:56;0.57;;;0.28;;
73571;SDS011;61854;48.510;-2.770;2023-08-01T07:05:22;1.98;;;0.68;;
73571;SDS011;61854;48.510;-2.770;2023-08-01T07:07:48;0.38;;;0.38;;
73571;SDS011;61854;48.510;-2.770;2023-08-01T07:10:14;0.32;;;0.25;;
73571;SDS011;61854;48.510;-2.770;2023-08-01T07:12:39;3.00;;;0.75;;
73571;SDS011;61854;48.510;-2.770;2023-08-01T07:15:05;0.68;;;0.55;;
73571;SDS011;61854;48.510;-2.770;2023-08-01T07:17:31;0.35;;;0.35;;
73571;SDS011;61854;48.510;-2.770;2023-08-01T07:19:57;6.93;;;0.93;;
73571;SDS011;61854;48.510;-2.770;2023-08-01T07:22:23;0.13;;;0.10;;
73571;SDS011;61854;48.510;-2.770;2023-08-01T07:24:52;1.45;;;0.57;;
73571;SDS011;61854;48.510;-2.770;2023-08-01T07:27:19;0.50;;;0.50;;
73571;SDS011;61854;48.510;-2.770;2023-08-01T07:29:44;2.42;;;0.80;;
73571;SDS011;61854;48.510;-2.770;2023-08-01T07:32:10;0.20;;;0.20;;
73571;SDS011;61854;48.510;-2.770;2023-08-01T07:34:36;0.28;;;0.28;;
73571;SDS011;61854;48.510;-2.770;2023-08-01T07:37:02;0.28;;;0.28;;
73571;SDS011;61854;48.510;-2.770;2023-08-01T07:39:27;2.30;;;0.80;;
73571;SDS011;61854;48.510;-2.770;2023-08-01T07:41:54;0.65;;;0.40;;
73571;SDS011;61854;48.510;-2.770;2023-08-01T07:44:20;0.73;;;0.52;;
73571;SDS011;61854;48.510;-2.770;2023-08-01T07:46:46;0.40;;;0.40;;
73571;SDS011;61854;48.510;-2.770;2023-08-01T07:49:12;0.10;;;0.10;;
73571;SDS011;61854;48.510;-2.770;2023-08-01T07:51:37;0.20;;;0.20;;
73571;SDS011;61854;48.510;-2.770;2023-08-01T07:54:03;0.20;;;0.20;;
73571;SDS011;61854;48.510;-2.770;2023-08-01T07:56:29;0.20;;;0.20;;
73571;SDS011;61854;48.510;-2.770;2023-08-01T07:58:54;0.17;;;0.17;;
73571;SDS011;61854;48.510;-2.770;2023-08-01T08:01:20;0.10;;;0.10;;
73571;SDS011;61854;48.510;-2.770;2023-08-01T08:03:46;0.35;;;0.30;;
73571;SDS011;61854;48.510;-2.770;2023-08-01T08:06:11;0.50;;;0.30;;
73571;SDS011;61854;48.510;-2.770;2023-08-01T08:08:37;0.45;;;0.35;;
73571;SDS011;61854;48.510;-2.770;2023-08-01T08:11:03;0.20;;;0.20;;
73571;SDS011;61854;48.510;-2.770;2023-08-01T08:13:29;0.85;;;0.47;;
73571;SDS011;61854;48.510;-2.770;2023-08-01T08:15:55;4.32;;;0.70;;
73571;SDS011;61854;48.510;-2.770;2023-08-01T08:18:22;0.10;;;0.10;;
73571;SDS011;61854;48.510;-2.770;2023-08-01T08:20:48;0.30;;;0.30;;
73571;SDS011;61854;48.510;-2.770;2023-08-01T08:23:13;0.10;;;0.10;;
73571;SDS011;61854;48.510;-2.770;2023-08-01T08:25:39;0.35;;;0.35;;
73571;SDS011;61854;48.510;-2.770;2023-08-01T08:28:06;0.20;;;0.20;;
73571;SDS011;61854;48.510;-2.770;2023-08-01T08:30:32;0.10;;;0.10;;
73571;SDS011;61854;48.510;-2.770;2023-08-01T08:32:58;0.10;;;0.10;;
73571;SDS011;61854;48.510;-2.770;2023-08-01T08:35:29;0.10;;;0.10;;
73571;SDS011;61854;48.510;-2.770;2023-08-01T08:37:59;0.90;;;0.75;;
73571;SDS011;61854;48.510;-2.770;2023-08-01T08:40:26;4.25;;;0.50;;
73571;SDS011;61854;48.510;-2.770;2023-08-01T08:42:52;0.43;;;0.35;;
73571;SDS011;61854;48.510;-2.770;2023-08-01T08:45:23;0.10;;;0.10;;
73571;SDS011;61854;48.510;-2.770;2023-08-01T08:47:53;0.52;;;0.25;;
73571;SDS011;61854;48.510;-2.770;2023-08-01T08:50:21;0.00;;;0.00;;
73571;SDS011;61854;48.510;-2.770;2023-08-01T08:52:47;0.15;;;0.15;;
73571;SDS011;61854;48.510;-2.770;2023-08-01T08:55:13;0.90;;;0.30;;
73571;SDS011;61854;48.510;-2.770;2023-08-01T08:57:39;0.30;;;0.30;;
73571;SDS011;61854;48.510;-2.770;2023-08-01T09:00:05;0.10;;;0.10;;
73571;SDS011;61854;48.510;-2.770;2023-08-01T09:02:34;0.10;;;0.10;;
73571;SDS011;61854;48.510;-2.770;2023-08-01T09:04:59;0.30;;;0.25;;
73571;SDS011;61854;48.510;-2.770;2023-08-01T09:07:26;0.60;;;0.45;;
73571;SDS011;61854;48.510;-2.770;2023-08-01T09:09:55;0.25;;;0.20;;
73571;SDS011;61854;48.510;-2.770;2023-08-01T09:12:20;0.70;;;0.40;;
73571;SDS011;61854;48.510;-2.770;2023-08-01T09:14:47;0.32;;;0.30;;
73571;SDS011;61854;48.510;-2.770;2023-08-01T09:17:15;0.05;;;0.05;;
73571;SDS011;61854;48.510;-2.770;2023-08-01T09:19:43;0.30;;;0.30;;
73571;SDS011;61854;48.510;-2.770;2023-08-01T09:22:10;0.98;;;0.55;;
73571;SDS011;61854;48.510;-2.770;2023-08-01T09:24:36;0.50;;;0.50;;
73571;SDS011;61854;48.510;-2.770;2023-08-01T09:27:03;1.17;;;0.20;;
73571;SDS011;61854;48.510;-2.770;2023-08-01T09:29:33;0.25;;;0.20;;
73571;SDS011;61854;48.510;-2.770;2023-08-01T09:31:59;0.10;;;0.10;;
73571;SDS011;61854;48.510;-2.770;2023-08-01T09:34:25;1.88;;;0.43;;
73571;SDS011;61854;48.510;-2.770;2023-08-01T09:36:58;0.30;;;0.27;;
73571;SDS011;61854;48.510;-2.770;2023-08-01T09:39:25;0.30;;;0.22;;
73571;SDS011;61854;48.510;-2.770;2023-08-01T09:41:58;0.10;;;0.10;;
73571;SDS011;61854;48.510;-2.770;2023-08-01T09:44:25;1.50;;;0.73;;
73571;SDS011;61854;48.510;-2.770;2023-08-01T09:46:56;0.45;;;0.25;;
73571;SDS011;61854;48.510;-2.770;2023-08-01T09:49:21;0.75;;;0.40;;
73571;SDS011;61854;48.510;-2.770;2023-08-01T09:51:47;0.20;;;0.20;;
73571;SDS011;61854;48.510;-2.770;2023-08-01T09:54:15;0.20;;;0.20;;
73571;SDS011;61854;48.510;-2.770;2023-08-01T09:56:45;0.30;;;0.20;;
73571;SDS011;61854;48.510;-2.770;2023-08-01T09:59:12;0.00;;;0.00;;
73571;SDS011;61854;48.510;-2.770;2023-08-01T10:01:41;1.05;;;0.82;;
73571;SDS011;61854;48.510;-2.770;2023-08-01T10:04:11;0.55;;;0.55;;
73571;SDS011;61854;48.510;-2.770;2023-08-01T10:06:38;0.30;;;0.22;;
73571;SDS011;61854;48.510;-2.770;2023-08-01T10:09:09;0.17;;;0.15;;
73571;SDS011;61854;48.510;-2.770;2023-08-01T10:11:36;0.10;;;0.10;;
73571;SDS011;61854;48.510;-2.770;2023-08-01T10:14:07;0.10;;;0.10;;
73571;SDS011;61854;48.510;-2.770;2023-08-01T10:16:33;0.10;;;0.10;;
73571;SDS011;61854;48.510;-2.770;2023-08-01T10:19:02;0.80;;;0.68;;
73571;SDS011;61854;48.510;-2.770;2023-08-01T10:21:31;0.40;;;0.35;;
73571;SDS011;61854;48.510;-2.770;2023-08-01T10:23:57;0.10;;;0.10;;
73571;SDS011;61854;48.510;-2.770;2023-08-01T10:26:24;0.60;;;0.30;;
73571;SDS011;61854;48.510;-2.770;2023-08-01T10:28:50;0.10;;;0.10;;
73571;SDS011;61854;48.510;-2.770;2023-08-01T10:31:18;0.55;;;0.50;;
73571;SDS011;61854;48.510;-2.770;2023-08-01T10:33:45;0.60;;;0.60;;
73571;SDS011;61854;48.510;-2.770;2023-08-01T10:36:22;0.10;;;0.10;;
73571;SDS011;61854;48.510;-2.770;2023-08-01T10:38:52;0.38;;;0.20;;
73571;SDS011;61854;48.510;-2.770;2023-08-01T10:43:44;0.15;;;0.15;;
73571;SDS011;61854;48.510;-2.770;2023-08-01T10:46:10;0.47;;;0.32;;
73571;SDS011;61854;48.510;-2.770;2023-08-01T10:48:47;0.22;;;0.22;;
73571;SDS011;61854;48.510;-2.770;2023-08-01T10:51:21;0.05;;;0.05;;
73571;SDS011;61854;48.510;-2.770;2023-08-01T10:53:47;0.73;;;0.30;;
73571;SDS011;61854;48.510;-2.770;2023-08-01T10:56:17;3.88;;;0.82;;
73571;SDS011;61854;48.510;-2.770;2023-08-01T10:58:43;0.40;;;0.32;;
73571;SDS011;61854;48.510;-2.770;2023-08-01T11:01:09;1.55;;;0.68;;
73571;SDS011;61854;48.510;-2.770;2023-08-01T11:03:35;0.10;;;0.10;;
73571;SDS011;61854;48.510;-2.770;2023-08-01T11:06:02;0.90;;;0.70;;
73571;SDS011;61854;48.510;-2.770;2023-08-01T11:08:35;0.20;;;0.20;;
73571;SDS011;61854;48.510;-2.770;2023-08-01T11:11:05;0.15;;;0.13;;
73571;SDS011;61854;48.510;-2.770;2023-08-01T11:13:33;1.50;;;1.08;;
73571;SDS011;61854;48.510;-2.770;2023-08-01T11:16:01;0.28;;;0.28;;
73571;SDS011;61854;48.510;-2.770;2023-08-01T11:18:27;0.28;;;0.28;;
73571;SDS011;61854;48.510;-2.770;2023-08-01T11:20:54;0.50;;;0.40;;
73571;SDS011;61854;48.510;-2.770;2023-08-01T11:23:26;0.75;;;0.73;;
73571;SDS011;61854;48.510;-2.770;2023-08-01T11:25:53;7.15;;;1.02;;
73571;SDS011;61854;48.510;-2.770;2023-08-01T11:28:20;0.10;;;0.10;;
73571;SDS011;61854;48.510;-2.770;2023-08-01T11:30:51;0.35;;;0.22;;
73571;SDS011;61854;48.510;-2.770;2023-08-01T11:33:22;1.60;;;0.65;;
73571;SDS011;61854;48.510;-2.770;2023-08-01T11:35:55;0.20;;;0.20;;
73571;SDS011;61854;48.510;-2.770;2023-08-01T11:38:26;0.32;;;0.22;;
73571;SDS011;61854;48.510;-2.770;2023-08-01T11:40:58;0.20;;;0.20;;
73571;SDS011;61854;48.510;-2.770;2023-08-01T11:43:24;0.28;;;0.20;;
73571;SDS011;61854;48.510;-2.770;2023-08-01T11:45:56;0.52;;;0.40;;
73571;SDS011;61854;48.510;-2.770;2023-08-01T11:48:24;8.05;;;2.85;;
73571;SDS011;61854;48.510;-2.770;2023-08-01T11:51:11;7.35;;;2.67;;
73571;SDS011;61854;48.510;-2.770;2023-08-01T11:53:35;7.22;;;3.38;;
73571;SDS011;61854;48.510;-2.770;2023-08-01T11:56:04;8.90;;;2.67;;
73571;SDS011;61854;48.510;-2.770;2023-08-01T11:58:36;8.27;;;3.28;;
73571;SDS011;61854;48.510;-2.770;2023-08-01T12:01:06;8.95;;;3.63;;
73571;SDS011;61854;48.510;-2.770;2023-08-01T12:03:47;10.50;;;3.60;;
73571;SDS011;61854;48.510;-2.770;2023-08-01T12:06:14;6.50;;;2.72;;
73571;SDS011;61854;48.510;-2.770;2023-08-01T12:08:43;10.63;;;3.17;;
73571;SDS011;61854;48.510;-2.770;2023-08-01T12:11:43;9.50;;;2.55;;
73571;SDS011;61854;48.510;-2.770;2023-08-01T12:14:10;9.93;;;3.33;;
73571;SDS011;61854;48.510;-2.770;2023-08-01T12:16:44;10.65;;;2.67;;
73571;SDS011;61854;48.510;-2.770;2023-08-01T12:19:16;10.43;;;3.85;;
73571;SDS011;61854;48.510;-2.770;2023-08-01T12:21:43;10.13;;;2.80;;
73571;SDS011;61854;48.510;-2.770;2023-08-01T12:24:09;10.98;;;3.90;;
73571;SDS011;61854;48.510;-2.770;2023-08-01T12:26:35;12.25;;;3.00;;
73571;SDS011;61854;48.510;-2.770;2023-08-01T12:29:01;7.13;;;2.70;;
73571;SDS011;61854;48.510;-2.770;2023-08-01T12:31:26;7.10;;;3.13;;
73571;SDS011;61854;48.510;-2.770;2023-08-01T12:33:53;13.27;;;3.42;;
73571;SDS011;61854;48.510;-2.770;2023-08-01T12:36:18;7.82;;;3.00;;
73571;SDS011;61854;48.510;-2.770;2023-08-01T12:38:44;9.02;;;3.33;;
73571;SDS011;61854;48.510;-2.770;2023-08-01T12:41:10;9.13;;;3.67;;
73571;SDS011;61854;48.510;-2.770;2023-08-01T12:43:36;12.10;;;3.80;;
73571;SDS011;61854;48.510;-2.770;2023-08-01T12:46:02;7.82;;;3.10;;
73571;SDS011;61854;48.510;-2.770;2023-08-01T12:48:28;5.80;;;2.30;;
73571;SDS011;61854;48.510;-2.770;2023-08-01T12:50:54;9.13;;;3.40;;
73571;SDS011;61854;48.510;-2.770;2023-08-01T12:53:21;7.07;;;2.47;;
73571;SDS011;61854;48.510;-2.770;2023-08-01T12:55:47;8.98;;;3.15;;
73571;SDS011;61854;48.510;-2.770;2023-08-01T13:00:41;10.45;;;3.33;;
73571;SDS011;61854;48.510;-2.770;2023-08-01T13:03:08;8.23;;;2.53;;
73571;SDS011;61854;48.510;-2.770;2023-08-01T13:05:34;10.82;;;2.85;;
73571;SDS011;61854;48.510;-2.770;2023-08-01T13:08:00;8.43;;;2.45;;
73571;SDS011;61854;48.510;-2.770;2023-08-01T13:10:29;8.77;;;3.08;;
73571;SDS011;61854;48.510;-2.770;2023-08-01T13:12:55;8.45;;;3.00;;
73571;SDS011;61854;48.510;-2.770;2023-08-01T13:15:21;11.65;;;3.13;;
73571;SDS011;61854;48.510;-2.770;2023-08-01T13:17:46;9.60;;;3.25;;
73571;SDS011;61854;48.510;-2.770;2023-08-01T13:20:12;9.57;;;3.13;;
73571;SDS011;61854;48.510;-2.770;2023-08-01T13:22:38;11.65;;;3.63;;
73571;SDS011;61854;48.510;-2.770;2023-08-01T13:25:03;9.15;;;2.40;;
73571;SDS011;61854;48.510;-2.770;2023-08-01T13:27:31;6.90;;;2.45;;
73571;SDS011;61854;48.510;-2.770;2023-08-01T13:29:59;6.95;;;2.15;;
73571;SDS011;61854;48.510;-2.770;2023-08-01T13:32:24;6.47;;;2.53;;
73571;SDS011;61854;48.510;-2.770;2023-08-01T13:34:50;9.43;;;2.72;;
73571;SDS011;61854;48.510;-2.770;2023-08-01T13:37:15;8.05;;;3.10;;
73571;SDS011;61854;48.510;-2.770;2023-08-01T13:39:41;7.82;;;2.40;;
73571;SDS011;61854;48.510;-2.770;2023-08-01T13:42:07;8.63;;;2.72;;
73571;SDS011;61854;48.510;-2.770;2023-08-01T13:44:32;6.72;;;2.42;;
73571;SDS011;61854;48.510;-2.770;2023-08-01T13:46:58;7.97;;;2.67;;
73571;SDS011;61854;48.510;-2.770;2023-08-01T13:49:25;6.85;;;2.30;;
73571;SDS011;61854;48.510;-2.770;2023-08-01T13:51:50;5.72;;;2.30;;
73571;SDS011;61854;48.510;-2.770;2023-08-01T13:54:16;7.50;;;2.63;;
73571;SDS011;61854;48.510;-2.770;2023-08-01T13:56:41;8.77;;;2.70;;
73571;SDS011;61854;48.510;-2.770;2023-08-01T13:59:07;9.45;;;2.67;;
73571;SDS011;61854;48.510;-2.770;2023-08-01T14:01:33;9.07;;;2.50;;
73571;SDS011;61854;48.510;-2.770;2023-08-01T14:04:00;9.27;;;2.90;;
73571;SDS011;61854;48.510;-2.770;2023-08-01T14:06:26;11.35;;;3.20;;
73571;SDS011;61854;48.510;-2.770;2023-08-01T14:08:51;9.52;;;2.67;;
73571;SDS011;61854;48.510;-2.770;2023-08-01T14:11:17;7.53;;;2.08;;
73571;SDS011;61854;48.510;-2.770;2023-08-01T14:13:43;8.55;;;2.67;;
73571;SDS011;61854;48.510;-2.770;2023-08-01T14:16:09;8.05;;;2.55;;
73571;SDS011;61854;48.510;-2.770;2023-08-01T14:18:34;8.80;;;2.95;;
73571;SDS011;61854;48.510;-2.770;2023-08-01T14:21:00;9.57;;;2.45;;
73571;SDS011;61854;48.510;-2.770;2023-08-01T14:23:26;10.05;;;2.60;;
73571;SDS011;61854;48.510;-2.770;2023-08-01T14:25:52;8.23;;;2.65;;
73571;SDS011;61854;48.510;-2.770;2023-08-01T14:28:18;7.15;;;2.63;;
73571;SDS011;61854;48.510;-2.770;2023-08-01T14:30:44;6.47;;;2.35;;
73571;SDS011;61854;48.510;-2.770;2023-08-01T14:33:09;8.10;;;2.35;;
73571;SDS011;61854;48.510;-2.770;2023-08-01T14:35:35;8.13;;;2.85;;
73571;SDS011;61854;48.510;-2.770;2023-08-01T14:38:01;6.00;;;2.60;;